Time;durP1;ratioP1;P1;durP2;ratioP2;P2;SDS_P1;SDS_P2;PMS_P1;PMS_P2;Temp;Humidity;BMP_temperature;BMP_pressure;BME280_temperature;BME280_humidity;BME280_pressure;Samples;Min_cycle;Max_cycle;Signal;HPM_P1;HPM_P2
2022/09/16 00:03:07;;;;;;;3.97;1.90;;;20.90;71.40;;;;;;20843636;28;20045;-55
2022/09/16 00:13:09;;;;;;;2.45;1.42;;;20.90;71.30;;;;;;20824823;28;20057;-55
2022/09/16 00:23:11;;;;;;;2.50;1.30;;;20.80;71.70;;;;;;20841915;28;20387;-57
2022/09/16 00:33:13;;;;;;;2.38;1.20;;;20.70;71.80;;;;;;20840775;28;20064;-54
2022/09/16 00:43:17;;;;;;;2.20;1.10;;;20.60;72.20;;;;;;20840529;28;20045;-56
2022/09/16 00:53:26;;;;;;;2.88;1.20;;;20.50;72.20;;;;;;20839937;28;20111;-54
2022/09/16 01:03:30;;;;;;;2.53;1.60;;;20.40;72.10;;;;;;20821273;28;20053;-55
2022/09/16 01:13:32;;;;;;;3.85;1.30;;;20.30;72.00;;;;;;20839098;28;20072;-56
2022/09/16 01:23:48;;;;;;;3.55;1.38;;;20.20;71.90;;;;;;20837198;28;20046;-55
2022/09/16 01:34:12;;;;;;;3.13;1.42;;;20.20;72.20;;;;;;20835666;28;20057;-56
2022/09/16 01:44:46;;;;;;;1.57;1.10;;;20.10;72.40;;;;;;20836359;28;20102;-54
2022/09/16 01:55:12;;;;;;;2.20;1.30;;;20.10;72.00;;;;;;20835292;28;20056;-54
2022/09/16 02:05:20;;;;;;;1.42;1.15;;;20.10;72.00;;;;;;20833805;28;20049;-54
2022/09/16 02:15:26;;;;;;;2.25;1.30;;;20.00;72.60;;;;;;20833226;28;20049;-55
2022/09/16 02:25:34;;;;;;;2.25;1.45;;;20.00;72.60;;;;;;20833241;28;20132;-55
2022/09/16 02:35:38;;;;;;;3.47;1.67;;;20.00;72.20;;;;;;20831170;28;20061;-54
2022/09/16 02:45:50;;;;;;;4.25;1.70;;;19.90;72.40;;;;;;20832132;28;20786;-56
2022/09/16 02:55:57;;;;;;;5.15;1.65;;;19.80;72.40;;;;;;20829824;28;20140;-55
2022/09/16 03:06:16;;;;;;;2.53;1.50;;;19.80;72.20;;;;;;20831157;28;20069;-54
2022/09/16 03:16:37;;;;;;;4.45;1.60;;;19.80;72.10;;;;;;20830038;28;20053;-56
2022/09/16 03:27:17;;;;;;;3.15;1.50;;;19.70;71.90;;;;;;20829951;28;20049;-54
2022/09/16 03:37:21;;;;;;;2.78;1.42;;;19.70;71.80;;;;;;20496993;29;20566;-55
2022/09/16 03:47:22;;;;;;;3.72;1.38;;;19.60;72.10;;;;;;20497129;28;20047;-55
2022/09/16 03:57:24;;;;;;;5.30;1.65;;;19.40;72.30;;;;;;20496186;29;20055;-54
2022/09/16 04:07:27;;;;;;;2.17;1.20;;;19.40;72.20;;;;;;20589417;28;20046;-54
2022/09/16 04:17:31;;;;;;;3.45;1.40;;;19.30;72.10;;;;;;20843044;28;20119;-55
2022/09/16 04:27:33;;;;;;;2.78;1.30;;;19.20;71.90;;;;;;20841978;28;20494;-55
2022/09/16 04:37:35;;;;;;;2.40;1.27;;;19.10;72.00;;;;;;20841507;28;20103;-54
2022/09/16 04:47:37;;;;;;;3.25;1.50;;;19.00;72.00;;;;;;20840121;28;20045;-54
2022/09/16 04:57:40;;;;;;;5.25;1.30;;;18.90;71.90;;;;;;20839719;28;20148;-54
2022/09/16 05:07:42;;;;;;;2.63;1.10;;;18.80;72.10;;;;;;20839188;28;20049;-55
2022/09/16 05:17:44;;;;;;;2.45;1.30;;;18.70;72.10;;;;;;20836946;28;20107;-57
2022/09/16 05:27:46;;;;;;;2.22;1.40;;;18.70;72.30;;;;;;20836361;28;20050;-55
2022/09/16 05:37:48;;;;;;;5.55;1.85;;;18.60;72.50;;;;;;20834874;28;20527;-55
2022/09/16 05:47:50;;;;;;;4.63;1.52;;;18.60;72.60;;;;;;20834264;28;20102;-54
2022/09/16 05:57:51;;;;;;;4.85;1.95;;;18.70;72.30;;;;;;20833631;28;20049;-55
2022/09/16 06:07:55;;;;;;;3.95;2.20;;;18.70;72.50;;;;;;20832700;28;20057;-55
2022/09/16 06:17:57;;;;;;;4.03;2.10;;;18.70;72.30;;;;;;20832334;28;20057;-55
2022/09/16 06:27:59;;;;;;;6.72;2.90;;;18.80;71.90;;;;;;20830663;28;20527;-55
2022/09/16 06:38:01;;;;;;;6.30;2.35;;;18.90;71.90;;;;;;20829946;28;20056;-56
2022/09/16 06:48:03;;;;;;;3.83;2.15;;;19.00;71.50;;;;;;20830658;28;20453;-55
2022/09/16 06:58:04;;;;;;;6.93;2.05;;;19.10;71.20;;;;;;20829336;28;20454;-56
2022/09/16 07:08:06;;;;;;;10.05;3.75;;;19.30;70.20;;;;;;20828579;28;20076;-55
2022/09/16 07:18:07;;;;;;;7.95;3.38;;;19.40;70.50;;;;;;20828394;28;20454;-55
2022/09/16 07:28:09;;;;;;;8.95;2.70;;;19.70;69.30;;;;;;20828821;28;20459;-56
2022/09/16 07:38:11;;;;;;;4.95;2.80;;;20.00;68.00;;;;;;20828330;28;20055;-55
2022/09/16 07:48:12;;;;;;;8.35;3.78;;;20.20;67.60;;;;;;20840143;28;20134;-55
2022/09/16 07:58:14;;;;;;;7.22;2.78;;;20.40;67.00;;;;;;20842468;28;20084;-56
2022/09/16 08:08:15;;;;;;;8.25;3.25;;;20.70;65.90;;;;;;20841613;28;20053;-54
2022/09/16 08:18:16;;;;;;;12.65;3.88;;;21.10;64.70;;;;;;20841887;28;20045;-55
2022/09/16 08:28:17;;;;;;;3.63;1.63;;;21.40;63.60;;;;;;20838411;28;20399;-59
2022/09/16 08:38:17;;;;;;;8.90;2.10;;;22.10;61.20;;;;;;20838582;28;20066;-60
2022/09/16 08:48:42;;;;;;;4.18;1.92;;;23.50;56.80;;;;;;20839287;28;20137;-55
2022/09/16 08:58:50;;;;;;;6.22;2.60;;;23.10;56.40;;;;;;20835639;28;20057;-59
2022/09/16 09:09:05;;;;;;;6.47;5.25;;;23.20;56.20;;;;;;20820477;28;20498;-57
2022/09/16 09:19:50;;;;;;;3.45;1.48;;;23.40;55.20;;;;;;20837600;28;20054;-57
2022/09/16 09:30:10;;;;;;;5.50;1.42;;;23.10;55.40;;;;;;20822886;28;20061;-54
2022/09/16 09:40:23;;;;;;;2.10;1.23;;;23.00;55.50;;;;;;20837047;28;20053;-57
2022/09/16 09:50:43;;;;;;;2.85;1.30;;;23.40;54.10;;;;;;20834350;28;20049;-59
2022/09/16 10:00:45;;;;;;;2.03;1.10;;;24.00;52.80;;;;;;20833699;28;20520;-54
2022/09/16 10:11:01;;;;;;;2.42;1.38;;;24.10;52.40;;;;;;20832066;28;20060;-59
2022/09/16 10:21:15;;;;;;;3.53;1.25;;;24.30;51.00;;;;;;20806205;28;20057;-58
2022/09/16 10:31:17;;;;;;;3.53;1.50;;;24.40;50.90;;;;;;20748695;28;20058;-58
2022/09/16 10:41:45;;;;;;;2.83;1.48;;;24.70;50.20;;;;;;20804894;28;20429;-56
2022/09/16 10:51:46;;;;;;;3.05;1.45;;;24.60;49.80;;;;;;20829447;28;20478;-57
2022/09/16 11:02:00;;;;;;;2.73;1.47;;;24.90;49.50;;;;;;20829372;28;20049;-59
2022/09/16 11:12:47;;;;;;;4.53;1.33;;;25.00;49.90;;;;;;20828920;28;20053;-55
2022/09/16 11:22:53;;;;;;;2.50;1.40;;;25.10;48.80;;;;;;20656717;28;20157;-58
2022/09/16 11:33:35;;;;;;;4.25;1.60;;;25.20;47.70;;;;;;20652574;28;20062;-56
2022/09/16 11:43:47;;;;;;;3.15;1.58;;;25.20;48.30;;;;;;20652897;28;20534;-58
2022/09/16 11:54:19;;;;;;;2.20;1.50;;;25.50;48.30;;;;;;20687715;28;20060;-58
2022/09/16 12:04:30;;;;;;;4.33;1.43;;;25.70;46.60;;;;;;20765202;28;20074;-57
2022/09/16 12:14:56;;;;;;;2.25;1.30;;;25.80;46.60;;;;;;20789737;28;20409;-60
2022/09/16 12:25:08;;;;;;;2.97;1.70;;;25.90;46.00;;;;;;20492534;29;20492;-59
2022/09/16 12:35:16;;;;;;;2.28;1.40;;;26.00;45.50;;;;;;20504293;28;20520;-56
2022/09/16 12:45:44;;;;;;;4.47;1.85;;;26.10;44.50;;;;;;20507276;29;20063;-58
2022/09/16 12:56:07;;;;;;;4.75;1.50;;;26.20;44.50;;;;;;20590040;28;20084;-58
2022/09/16 13:06:27;;;;;;;3.13;1.55;;;26.60;43.70;;;;;;20837945;28;20489;-58
2022/09/16 13:16:34;;;;;;;5.15;1.45;;;26.90;42.60;;;;;;20837174;28;20527;-58
2022/09/16 13:26:41;;;;;;;2.28;1.25;;;27.20;41.60;;;;;;20837448;28;20139;-57
2022/09/16 13:36:45;;;;;;;2.33;1.30;;;27.20;40.80;;;;;;20834852;28;20100;-57
2022/09/16 13:46:48;;;;;;;3.67;1.50;;;26.80;40.40;;;;;;20834571;28;20512;-59
2022/09/16 13:57:04;;;;;;;4.70;1.30;;;26.90;40.60;;;;;;20834567;28;20143;-57
2022/09/16 14:07:21;;;;;;;3.17;1.55;;;26.90;40.40;;;;;;20833940;28;20049;-59
2022/09/16 14:17:26;;;;;;;1.73;1.00;;;27.10;39.80;;;;;;20832398;28;20061;-58
2022/09/16 14:27:35;;;;;;;6.80;1.60;;;27.20;39.80;;;;;;20831223;28;20434;-56
2022/09/16 14:37:38;;;;;;;3.03;1.02;;;27.30;39.00;;;;;;20831120;28;20112;-57
2022/09/16 14:47:40;;;;;;;2.13;1.10;;;27.30;38.80;;;;;;20830416;28;20422;-58
2022/09/16 14:57:42;;;;;;;4.38;1.63;;;27.40;38.10;;;;;;20829663;28;20130;-55
2022/09/16 15:07:45;;;;;;;3.55;1.90;;;27.50;38.90;;;;;;20825488;28;20041;-55
2022/09/16 15:18:08;;;;;;;2.38;1.40;;;27.60;39.00;;;;;;20826973;28;20053;-55
2022/09/16 15:28:18;;;;;;;3.78;1.42;;;27.60;38.80;;;;;;20803826;28;20053;-56
2022/09/16 15:38:21;;;;;;;2.47;1.08;;;27.60;39.10;;;;;;20823776;28;20052;-57
2022/09/16 15:48:28;;;;;;;3.55;1.50;;;27.70;38.70;;;;;;20825900;28;20136;-57
2022/09/16 15:58:46;;;;;;;2.70;1.20;;;27.70;40.60;;;;;;20825587;28;20049;-58
2022/09/16 16:08:50;;;;;;;5.28;1.88;;;27.70;39.90;;;;;;20819420;28;20052;-55
2022/09/16 16:18:53;;;;;;;2.75;1.30;;;27.70;41.30;;;;;;20841079;28;20110;-55
2022/09/16 16:28:54;;;;;;;3.35;1.00;;;27.60;43.10;;;;;;20842594;28;20480;-56
2022/09/16 16:38:56;;;;;;;3.55;1.20;;;27.60;44.60;;;;;;20839447;28;20064;-56
2022/09/16 16:48:58;;;;;;;4.07;1.50;;;27.60;41.20;;;;;;20840314;28;20049;-55
2022/09/16 16:59:00;;;;;;;2.80;1.70;;;27.50;40.80;;;;;;20839187;28;20065;-58
2022/09/16 17:09:01;;;;;;;;;;;27.50;45.40;;;;;;20820280;28;20056;-57
2022/09/16 17:19:03;;;;;;;4.20;1.27;;;27.50;44.60;;;;;;20835180;28;20388;-57
2022/09/16 17:29:07;;;;;;;3.30;1.40;;;27.40;46.20;;;;;;20835773;28;20057;-54
2022/09/16 17:39:19;;;;;;;2.55;1.70;;;27.40;46.70;;;;;;20834362;28;20064;-55
2022/09/16 17:49:23;;;;;;;5.35;3.35;;;27.20;44.40;;;;;;20835038;28;20052;-56
2022/09/16 17:59:25;;;;;;;6.88;4.85;;;27.10;43.60;;;;;;20834912;28;20049;-57
2022/09/16 18:09:27;;;;;;;4.10;3.00;;;27.00;43.70;;;;;;20833387;28;20045;-56
2022/09/16 18:19:28;;;;;;;4.88;3.10;;;26.90;43.70;;;;;;20833914;28;20107;-55
2022/09/16 18:29:30;;;;;;;4.80;2.83;;;26.80;43.50;;;;;;20832042;28;20053;-56
2022/09/16 18:39:32;;;;;;;7.22;2.25;;;26.70;43.50;;;;;;20831584;28;20060;-56
2022/09/16 18:49:33;;;;;;;5.32;2.50;;;26.70;43.60;;;;;;20830422;28;20065;-57
2022/09/16 18:59:35;;;;;;;7.85;3.15;;;26.60;42.90;;;;;;20830494;28;20164;-55
2022/09/16 19:09:38;;;;;;;4.78;2.70;;;26.30;43.20;;;;;;20829574;28;20045;-57
2022/09/16 19:19:40;;;;;;;7.70;4.53;;;26.20;43.80;;;;;;20829209;28;20060;-58
2022/09/16 19:29:42;;;;;;;6.13;3.70;;;26.10;44.30;;;;;;20828083;28;20060;-56
2022/09/16 19:39:43;;;;;;;4.47;2.27;;;25.90;45.00;;;;;;20832776;28;20054;-57
2022/09/16 19:49:45;;;;;;;5.63;3.87;;;25.70;45.60;;;;;;20844529;28;20046;-57
2022/09/16 19:59:46;;;;;;;9.03;4.10;;;25.60;45.90;;;;;;20842602;28;20670;-58
2022/09/16 20:09:48;;;;;;;6.57;2.90;;;25.60;46.70;;;;;;20841735;28;20049;-56
2022/09/16 20:19:50;;;;;;;3.05;2.40;;;25.50;46.40;;;;;;20841636;28;20115;-55
2022/09/16 20:29:51;;;;;;;5.75;2.67;;;25.40;46.10;;;;;;20841165;28;20136;-57
2022/09/16 20:39:55;;;;;;;5.13;2.92;;;25.50;46.40;;;;;;20822431;28;20148;-56
2022/09/16 20:49:56;;;;;;;4.85;3.80;;;25.40;46.50;;;;;;20839450;28;20128;-57
2022/09/16 20:59:58;;;;;;;4.45;2.97;;;25.20;47.30;;;;;;20840051;28;20542;-56
2022/09/16 21:10:00;;;;;;;12.17;7.13;;;25.10;46.70;;;;;;20838984;28;20155;-58
2022/09/16 21:20:03;;;;;;;6.65;4.32;;;24.80;47.90;;;;;;20837936;28;20488;-56
2022/09/16 21:30:06;;;;;;;5.18;2.53;;;24.70;48.40;;;;;;20836235;28;20076;-56
2022/09/16 21:40:11;;;;;;;4.25;1.70;;;24.70;46.40;;;;;;20834833;28;20509;-56
2022/09/16 21:50:13;;;;;;;2.42;1.65;;;24.60;43.60;;;;;;20835903;28;20053;-56
2022/09/16 22:00:15;;;;;;;3.35;1.90;;;24.60;42.70;;;;;;20833924;28;20077;-55
2022/09/16 22:10:16;;;;;;;3.37;1.67;;;24.40;43.10;;;;;;20833480;28;20056;-55
2022/09/16 22:20:22;;;;;;;2.97;1.38;;;24.20;44.00;;;;;;20833623;28;20505;-55
2022/09/16 22:30:23;;;;;;;3.00;1.90;;;24.10;44.70;;;;;;20831564;28;20126;-56
2022/09/16 22:40:25;;;;;;;2.57;1.70;;;23.90;46.20;;;;;;20831951;28;20057;-55
2022/09/16 22:50:26;;;;;;;5.27;2.00;;;23.90;47.40;;;;;;20831420;28;20094;-56
2022/09/16 23:00:29;;;;;;;2.67;1.50;;;23.60;48.70;;;;;;20830155;28;20119;-56
2022/09/16 23:10:31;;;;;;;3.35;1.80;;;23.60;49.80;;;;;;20829347;28;20199;-55
2022/09/16 23:20:32;;;;;;;4.67;2.23;;;23.40;50.50;;;;;;20830225;28;20409;-56
2022/09/16 23:30:34;;;;;;;1.97;1.60;;;23.40;50.70;;;;;;20828728;28;20049;-56
2022/09/16 23:40:36;;;;;;;3.85;1.90;;;23.30;51.10;;;;;;20829259;28;20061;-55
2022/09/16 23:50:39;;;;;;;3.10;2.33;;;23.20;51.70;;;;;;20828218;28;20049;-55
